Time;durP1;ratioP1;P1;durP2;ratioP2;P2;SDS_P1;SDS_P2;PMS_P1;PMS_P2;Temp;Humidity;BMP_temperature;BMP_pressure;BME280_temperature;BME280_humidity;BME280_pressure;Samples;Min_cycle;Max_cycle;Signal;HPM_P1;HPM_P2
2021/11/24 08:43:43;;;;;;;32.30;9.33;;;9.40;99.90;;;;;;4933740;29;20589;-70
2021/11/24 08:46:10;;;;;;;26.37;8.43;;;9.40;99.90;;;;;;4939072;29;20263;-76
2021/11/24 08:48:37;;;;;;;26.50;8.30;;;9.40;99.90;;;;;;4955730;29;20712;-81
2021/11/24 08:51:04;;;;;;;24.33;8.33;;;9.50;99.90;;;;;;4922376;29;20216;-72
2021/11/24 08:53:31;;;;;;;26.13;8.20;;;9.20;99.90;;;;;;4917174;29;20234;-69
2021/11/24 08:55:58;;;;;;;25.83;8.73;;;9.20;99.90;;;;;;4917004;29;20692;-67
2021/11/24 08:58:26;;;;;;;30.87;9.50;;;9.40;99.90;;;;;;4920262;29;20680;-67
2021/11/24 09:00:54;;;;;;;28.40;8.37;;;9.30;99.90;;;;;;4935602;29;20219;-71
2021/11/24 09:03:21;;;;;;;29.67;7.67;;;9.30;99.90;;;;;;4935832;29;20213;-74
2021/11/24 09:05:49;;;;;;;25.23;7.90;;;9.20;99.90;;;;;;4935731;29;20212;-68
2021/11/24 09:08:16;;;;;;;30.37;8.83;;;9.20;99.90;;;;;;4935573;29;20209;-66
2021/11/24 09:10:43;;;;;;;30.77;9.63;;;9.40;99.90;;;;;;4935169;29;20205;-69
2021/11/24 09:13:10;;;;;;;28.70;7.93;;;9.40;99.90;;;;;;4935516;29;20229;-71
2021/11/24 09:15:39;;;;;;;29.20;8.07;;;9.30;99.90;;;;;;4935902;29;20208;-74
2021/11/24 09:18:08;;;;;;;29.33;8.73;;;9.30;99.90;;;;;;4935398;29;20752;-70
2021/11/24 09:20:35;;;;;;;21.00;8.30;;;9.30;99.90;;;;;;4935865;29;20256;-68
2021/11/24 09:23:02;;;;;;;26.77;8.77;;;9.20;99.90;;;;;;4935526;29;20674;-67
2021/11/24 09:25:37;;;;;;;31.30;9.63;;;9.20;99.90;;;;;;4935944;29;20208;-71
2021/11/24 09:28:10;;;;;;;24.60;8.60;;;9.30;99.90;;;;;;4935865;29;20211;-73
2021/11/24 09:30:37;;;;;;;26.53;8.63;;;9.70;99.90;;;;;;4935688;29;20719;-71
2021/11/24 09:33:04;;;;;;;25.30;8.17;;;9.80;99.90;;;;;;4935592;29;20661;-75
2021/11/24 09:35:32;;;;;;;23.33;8.63;;;9.60;99.90;;;;;;4935795;29;20219;-74
2021/11/24 09:38:00;;;;;;;21.47;7.63;;;9.50;99.90;;;;;;4938695;29;20208;-78
2021/11/24 09:40:28;;;;;;;27.60;7.80;;;9.50;99.90;;;;;;4939600;29;20784;-76
2021/11/24 09:43:00;;;;;;;25.63;8.57;;;9.40;99.90;;;;;;4939476;29;20220;-80
2021/11/24 09:45:28;;;;;;;29.10;8.87;;;9.50;99.90;;;;;;4939753;29;20208;-78
2021/11/24 09:47:58;;;;;;;22.97;7.93;;;9.60;99.90;;;;;;4939446;29;20692;-74
2021/11/24 09:50:26;;;;;;;19.00;7.97;;;9.60;99.90;;;;;;4939109;29;20233;-78
2021/11/24 09:52:56;;;;;;;25.63;7.60;;;9.70;99.90;;;;;;4939289;29;20209;-69
2021/11/24 09:55:23;;;;;;;26.00;8.90;;;9.70;99.90;;;;;;4939059;29;20677;-75
2021/11/24 09:57:53;;;;;;;26.67;8.83;;;9.80;99.90;;;;;;4938753;29;20673;-73
2021/11/24 10:00:20;;;;;;;24.80;8.33;;;9.70;99.90;;;;;;4939313;29;20727;-76
2021/11/24 10:02:47;;;;;;;21.53;8.00;;;9.60;99.90;;;;;;4939223;29;20213;-73
2021/11/24 10:05:14;;;;;;;23.37;7.83;;;9.70;99.90;;;;;;4939521;29;20597;-71
2021/11/24 10:07:43;;;;;;;22.83;8.17;;;9.70;99.90;;;;;;4939464;29;20205;-81
2021/11/24 10:10:11;;;;;;;21.63;7.63;;;9.90;99.90;;;;;;4939611;29;20232;-79
2021/11/24 10:12:38;;;;;;;25.53;7.27;;;9.90;99.90;;;;;;4939604;29;20209;-79
2021/11/24 10:15:09;;;;;;;24.47;8.97;;;9.90;99.90;;;;;;4938850;29;20237;-76
2021/11/24 10:17:37;;;;;;;22.00;8.30;;;9.90;99.90;;;;;;4939212;29;20626;-72
2021/11/24 10:20:07;;;;;;;22.23;8.10;;;9.70;99.90;;;;;;4938925;29;20643;-79
2021/11/24 10:22:34;;;;;;;24.20;7.93;;;9.40;99.90;;;;;;4938953;29;20208;-70
2021/11/24 10:25:06;;;;;;;29.43;9.33;;;9.10;99.90;;;;;;4938857;29;20213;-79
2021/11/24 10:27:38;;;;;;;26.27;8.60;;;8.90;99.90;;;;;;4938786;29;20736;-74
2021/11/24 10:30:07;;;;;;;28.00;8.10;;;9.20;99.90;;;;;;4938411;29;20248;-76
2021/11/24 10:32:34;;;;;;;29.03;9.20;;;9.40;99.90;;;;;;4939420;29;20212;-74
2021/11/24 10:35:01;;;;;;;26.90;8.40;;;9.30;99.90;;;;;;4938908;29;20261;-75
2021/11/24 10:37:29;;;;;;;23.87;8.20;;;9.30;99.90;;;;;;4938359;29;20768;-79
2021/11/24 10:39:59;;;;;;;26.20;8.67;;;9.10;99.90;;;;;;4938455;29;20232;-77
2021/11/24 10:42:31;;;;;;;21.30;8.10;;;9.20;99.90;;;;;;4938604;29;20220;-76
2021/11/24 10:45:01;;;;;;;28.93;8.50;;;9.20;99.90;;;;;;4938396;29;20215;-79
2021/11/24 10:47:28;;;;;;;22.73;8.17;;;8.90;99.90;;;;;;4938006;29;20216;-77
2021/11/24 10:49:57;;;;;;;25.67;9.20;;;8.80;99.90;;;;;;4938223;29;20232;-79
2021/11/24 10:52:26;;;;;;;25.50;8.33;;;8.90;99.90;;;;;;4938345;29;20295;-79
2021/11/24 10:55:02;;;;;;;25.10;8.30;;;8.90;99.90;;;;;;4938182;29;20583;-68
2021/11/24 10:57:29;;;;;;;20.20;8.10;;;8.90;99.90;;;;;;4938159;29;20571;-65
2021/11/24 11:00:07;;;;;;;27.37;8.50;;;8.90;99.90;;;;;;4938190;29;20236;-64
2021/11/24 11:02:35;;;;;;;19.70;7.60;;;8.80;99.90;;;;;;4938343;29;20665;-64
2021/11/24 11:05:08;;;;;;;23.57;7.77;;;9.10;99.90;;;;;;4938291;29;20209;-66
2021/11/24 11:07:37;;;;;;;24.60;8.13;;;9.30;99.90;;;;;;4937982;29;20684;-65
2021/11/24 11:10:13;;;;;;;21.07;8.03;;;9.20;99.90;;;;;;4938083;29;20239;-67
2021/11/24 11:12:43;;;;;;;26.03;8.57;;;9.10;99.90;;;;;;4937813;29;20266;-65
2021/11/24 11:15:17;;;;;;;23.77;8.23;;;9.20;99.90;;;;;;4937837;29;20597;-73
2021/11/24 11:17:50;;;;;;;23.13;8.30;;;9.20;99.90;;;;;;4937981;29;20298;-67
2021/11/24 11:20:17;;;;;;;27.63;9.13;;;9.20;99.90;;;;;;4937847;29;20225;-74
2021/11/24 11:22:44;;;;;;;22.77;8.40;;;9.00;99.90;;;;;;4937733;29;20219;-77
2021/11/24 11:25:11;;;;;;;25.90;8.97;;;8.80;99.90;;;;;;4938053;29;20242;-66
2021/11/24 11:27:40;;;;;;;29.93;8.37;;;8.90;99.90;;;;;;4937767;29;20213;-67
2021/11/24 11:30:08;;;;;;;23.07;7.60;;;9.00;99.90;;;;;;4937705;29;20236;-73
2021/11/24 11:32:37;;;;;;;25.23;8.57;;;9.10;99.90;;;;;;4937641;29;20213;-72
2021/11/24 11:35:05;;;;;;;23.17;8.20;;;9.00;99.90;;;;;;4937710;29;20243;-78
2021/11/24 11:37:32;;;;;;;21.13;7.73;;;9.00;99.90;;;;;;4937538;29;20684;-75
2021/11/24 11:39:59;;;;;;;20.20;6.87;;;9.00;99.90;;;;;;4937724;29;20239;-77
2021/11/24 11:42:26;;;;;;;21.10;8.10;;;9.00;99.90;;;;;;4937673;29;20573;-66
2021/11/24 11:44:52;;;;;;;23.17;7.17;;;9.10;99.90;;;;;;4936130;29;20215;-74
2021/11/24 11:47:46;;;;;;;20.57;8.23;;;9.20;99.90;;;;;;4936831;29;20235;-68
2021/11/24 11:50:14;;;;;;;24.00;8.07;;;9.10;99.90;;;;;;4923330;29;20228;-72
2021/11/24 11:52:41;;;;;;;21.73;8.20;;;9.20;99.90;;;;;;4917487;29;20210;-67
2021/11/24 11:55:19;;;;;;;19.50;7.63;;;9.20;99.90;;;;;;4917289;29;20237;-75
2021/11/24 11:57:46;;;;;;;21.87;7.83;;;9.30;99.90;;;;;;4928968;29;20211;-67
2021/11/24 12:00:13;;;;;;;22.83;8.90;;;9.50;99.90;;;;;;4935241;29;20225;-79
2021/11/24 12:02:50;;;;;;;25.40;8.63;;;9.50;99.90;;;;;;4935912;29;20211;-72
2021/11/24 12:05:18;;;;;;;26.50;8.00;;;9.60;99.90;;;;;;4936406;29;20220;-77
2021/11/24 12:08:08;;;;;;;19.60;7.50;;;9.50;99.90;;;;;;4936337;29;20212;-78
2021/11/24 12:10:58;;;;;;;18.97;7.30;;;9.60;99.90;;;;;;4936555;29;20709;-78
2021/11/24 12:13:30;;;;;;;24.77;7.97;;;9.60;99.90;;;;;;4936176;29;20205;-78
2021/11/24 12:15:57;;;;;;;23.00;7.97;;;9.40;99.90;;;;;;4932722;29;20327;-75
2021/11/24 12:18:26;;;;;;;20.80;7.10;;;9.60;99.90;;;;;;4929777;29;20201;-70
2021/11/24 12:20:55;;;;;;;24.30;8.27;;;9.80;99.90;;;;;;4924553;29;20229;-79
2021/11/24 12:23:25;;;;;;;23.90;7.80;;;9.90;99.90;;;;;;4935960;29;20212;-73
2021/11/24 12:25:56;;;;;;;21.70;7.30;;;10.20;99.90;;;;;;4936447;29;20213;-70
2021/11/24 12:28:25;;;;;;;21.63;7.17;;;10.10;99.90;;;;;;4936295;29;20210;-70
2021/11/24 12:31:05;;;;;;;22.60;8.57;;;10.00;99.90;;;;;;4936296;29;20590;-75
2021/11/24 12:33:39;;;;;;;20.30;7.77;;;9.70;99.90;;;;;;4936444;29;20215;-75
2021/11/24 12:36:09;;;;;;;21.90;7.93;;;9.70;99.90;;;;;;4936302;29;20342;-75
2021/11/24 12:38:39;;;;;;;19.93;7.37;;;9.70;99.90;;;;;;4936235;29;20779;-76
2021/11/24 12:41:08;;;;;;;22.03;7.97;;;9.80;99.90;;;;;;4922804;29;20209;-79
2021/11/24 12:43:37;;;;;;;23.80;8.30;;;9.90;99.90;;;;;;4917064;29;20218;-79
2021/11/24 12:46:11;;;;;;;21.93;7.70;;;10.00;99.90;;;;;;4917050;29;20242;-72
2021/11/24 12:48:46;;;;;;;20.73;6.77;;;9.90;99.90;;;;;;4917456;29;20244;-73
2021/11/24 12:51:22;;;;;;;22.20;7.73;;;9.70;99.90;;;;;;4917673;29;20215;-80
2021/11/24 12:53:52;;;;;;;23.63;7.83;;;9.70;99.90;;;;;;4917793;29;20680;-78
2021/11/24 12:56:21;;;;;;;21.63;8.00;;;10.00;99.90;;;;;;4920498;29;20205;-75
2021/11/24 12:58:48;;;;;;;20.57;7.87;;;9.70;99.90;;;;;;4935731;29;20232;-76
2021/11/24 13:01:20;;;;;;;23.20;6.83;;;9.70;99.90;;;;;;4935830;29;20205;-76
2021/11/24 13:03:58;;;;;;;21.27;6.47;;;9.70;99.90;;;;;;4935771;29;20213;-75
2021/11/24 13:06:25;;;;;;;19.10;6.87;;;9.70;99.90;;;;;;4935871;29;20208;-77
2021/11/24 13:09:11;;;;;;;21.90;7.23;;;9.80;99.90;;;;;;4935844;29;20233;-72
2021/11/24 13:11:48;;;;;;;18.63;7.30;;;10.10;99.90;;;;;;4935620;29;20673;-80
2021/11/24 13:14:16;;;;;;;22.10;8.23;;;10.10;99.90;;;;;;4935944;29;20213;-74
2021/11/24 13:16:43;;;;;;;22.30;7.17;;;9.90;99.90;;;;;;4935801;29;20208;-80
2021/11/24 13:19:11;;;;;;;17.20;6.63;;;9.80;99.90;;;;;;4930941;29;20228;-73
2021/11/24 13:21:49;;;;;;;21.03;7.10;;;9.60;99.90;;;;;;4916646;29;20213;-78
2021/11/24 13:24:16;;;;;;;20.87;6.87;;;9.40;99.90;;;;;;4916649;29;20209;-78
2021/11/24 13:26:53;;;;;;;19.93;6.27;;;9.60;99.90;;;;;;4916644;29;20216;-78
2021/11/24 13:29:21;;;;;;;19.07;7.17;;;9.40;99.90;;;;;;4916380;29;20264;-78
2021/11/24 13:31:48;;;;;;;21.27;6.83;;;9.30;99.90;;;;;;4916743;29;20220;-79
2021/11/24 13:34:16;;;;;;;16.97;6.13;;;9.40;99.90;;;;;;4916497;29;20220;-77
2021/11/24 13:36:45;;;;;;;17.83;6.57;;;9.40;99.90;;;;;;4916194;29;20206;-79
2021/11/24 13:39:12;;;;;;;17.53;6.50;;;9.50;99.90;;;;;;4916456;29;20230;-79
2021/11/24 13:41:39;;;;;;;19.33;6.30;;;9.70;99.90;;;;;;4916262;29;20213;-83
2021/11/24 13:44:08;;;;;;;19.47;6.00;;;9.80;99.90;;;;;;4916705;29;20214;-79
2021/11/24 13:46:41;;;;;;;15.73;6.03;;;9.90;99.90;;;;;;4916775;29;20209;-76
2021/11/24 13:49:10;;;;;;;21.37;6.97;;;9.90;99.90;;;;;;4917025;29;20354;-79
2021/11/24 13:51:40;;;;;;;19.40;7.43;;;9.90;99.90;;;;;;4916774;29;20213;-79
2021/11/24 13:54:08;;;;;;;20.03;7.53;;;9.70;99.90;;;;;;4916808;29;20296;-76
2021/11/24 13:56:44;;;;;;;19.07;7.03;;;9.70;99.90;;;;;;4916726;29;20214;-74
2021/11/24 13:59:12;;;;;;;20.30;6.40;;;9.80;99.90;;;;;;4916048;29;21001;-81
2021/11/24 14:01:44;;;;;;;23.07;7.70;;;9.90;99.90;;;;;;4916065;29;20738;-73
2021/11/24 14:04:17;;;;;;;19.67;6.67;;;9.80;99.90;;;;;;4916284;29;20248;-77
2021/11/24 14:06:48;;;;;;;17.77;6.43;;;9.80;99.90;;;;;;4920568;29;20555;-75
2021/11/24 14:09:30;;;;;;;17.97;6.17;;;9.80;99.90;;;;;;4924339;29;20221;-74
2021/11/24 14:12:11;;;;;;;18.37;6.63;;;9.90;99.90;;;;;;4921663;29;20201;-80
2021/11/24 14:14:52;;;;;;;18.93;7.23;;;9.80;99.90;;;;;;4921185;29;20257;-76
2021/11/24 14:17:36;;;;;;;20.03;7.93;;;9.90;99.90;;;;;;4915636;29;20292;-68
2021/11/24 14:20:07;;;;;;;19.73;7.80;;;10.10;99.90;;;;;;4937717;28;20230;-74
2021/11/24 14:22:41;;;;;;;22.10;7.33;;;10.30;99.90;;;;;;4945092;28;20209;-71
2021/11/24 14:25:10;;;;;;;24.10;7.53;;;10.10;99.90;;;;;;4933364;29;20221;-74
2021/11/24 14:27:38;;;;;;;21.63;7.43;;;9.80;99.90;;;;;;4919389;29;20205;-77
2021/11/24 14:30:07;;;;;;;21.47;7.27;;;9.70;99.90;;;;;;4918716;29;20233;-79
2021/11/24 14:32:35;;;;;;;20.00;7.07;;;9.70;99.90;;;;;;4921100;29;20205;-81
2021/11/24 14:35:02;;;;;;;19.33;7.63;;;9.60;99.90;;;;;;4919105;29;20261;-75
2021/11/24 14:37:28;;;;;;;20.93;7.60;;;9.70;99.90;;;;;;4927187;29;20213;-75
2021/11/24 14:39:56;;;;;;;25.83;9.47;;;9.60;99.90;;;;;;4934323;29;20573;-76
2021/11/24 14:42:23;;;;;;;22.53;8.10;;;9.40;99.90;;;;;;4933666;29;20209;-79
2021/11/24 14:44:52;;;;;;;26.57;8.87;;;9.30;99.90;;;;;;4943696;29;20212;-78
2021/11/24 14:47:19;;;;;;;21.83;8.93;;;9.20;99.90;;;;;;4957126;29;20659;-77
2021/11/24 14:49:46;;;;;;;22.67;9.30;;;9.20;99.90;;;;;;4957029;29;20235;-71
2021/11/24 14:52:12;;;;;;;19.60;8.20;;;9.10;99.90;;;;;;4957295;29;20203;-74
2021/11/24 14:54:40;;;;;;;21.20;8.83;;;9.00;99.90;;;;;;4946839;29;20201;-72
2021/11/24 14:57:09;;;;;;;18.00;7.37;;;9.10;99.90;;;;;;4924017;29;20205;-78
2021/11/24 14:59:35;;;;;;;24.10;7.67;;;9.30;99.90;;;;;;4920108;29;20229;-70
2021/11/24 15:02:02;;;;;;;20.53;7.23;;;9.50;99.90;;;;;;4937605;29;20215;-76
2021/11/24 15:04:29;;;;;;;27.27;8.97;;;9.40;99.90;;;;;;4937600;29;20215;-70
2021/11/24 15:06:56;;;;;;;21.87;7.43;;;9.10;99.90;;;;;;4927116;29;20221;-75
2021/11/24 15:09:23;;;;;;;23.73;9.20;;;9.00;99.90;;;;;;4918511;29;20318;-70
2021/11/24 15:11:51;;;;;;;25.40;8.67;;;9.20;99.90;;;;;;4918115;29;20222;-74
2021/11/24 15:14:19;;;;;;;23.03;8.60;;;9.10;99.90;;;;;;4904261;29;20216;-79
2021/11/24 15:16:46;;;;;;;32.20;9.77;;;8.90;99.90;;;;;;4918433;29;20238;-67
2021/11/24 15:19:15;;;;;;;25.90;9.50;;;8.80;99.90;;;;;;4917667;29;20233;-65
2021/11/24 15:21:43;;;;;;;29.47;8.73;;;9.00;99.90;;;;;;4918452;29;20217;-66
2021/11/24 15:24:11;;;;;;;24.93;7.50;;;9.00;99.90;;;;;;4905210;29;20202;-73
2021/11/24 15:26:39;;;;;;;22.83;8.37;;;9.00;99.90;;;;;;4899583;29;20217;-77
2021/11/24 15:29:06;;;;;;;24.50;7.87;;;8.90;99.90;;;;;;4899226;29;20703;-73
2021/11/24 15:31:34;;;;;;;22.33;9.27;;;8.80;99.90;;;;;;4911800;29;20210;-77
2021/11/24 15:34:01;;;;;;;27.77;9.50;;;9.00;99.90;;;;;;4918445;29;20576;-77
2021/11/24 15:36:28;;;;;;;26.77;10.30;;;9.10;99.90;;;;;;4918302;29;20335;-73
2021/11/24 15:38:55;;;;;;;28.17;9.13;;;9.10;99.90;;;;;;4916324;29;20261;-79
2021/11/24 15:41:23;;;;;;;24.60;8.53;;;8.90;99.90;;;;;;4899263;29;20690;-77
2021/11/24 15:43:50;;;;;;;22.77;8.70;;;8.80;99.90;;;;;;4899299;29;20237;-74
2021/11/24 15:46:19;;;;;;;28.17;9.93;;;8.80;99.90;;;;;;4899228;29;20221;-79
2021/11/24 15:48:48;;;;;;;27.00;9.73;;;8.80;99.90;;;;;;4900323;29;20231;-74
2021/11/24 15:51:15;;;;;;;28.60;10.00;;;8.90;99.90;;;;;;4917986;29;20205;-71
2021/11/24 15:53:43;;;;;;;24.70;8.90;;;8.90;99.90;;;;;;4907217;29;20210;-75
2021/11/24 15:56:10;;;;;;;23.27;9.10;;;9.00;99.90;;;;;;4909049;29;20236;-76
2021/11/24 15:58:37;;;;;;;21.53;8.83;;;9.10;99.90;;;;;;4916166;29;20226;-77
2021/11/24 16:01:05;;;;;;;25.87;9.77;;;9.20;99.90;;;;;;4917724;29;20204;-69
2021/11/24 16:03:32;;;;;;;26.87;9.60;;;9.30;99.90;;;;;;4917521;29;20197;-79
2021/11/24 16:06:02;;;;;;;24.87;10.17;;;9.20;99.90;;;;;;4918065;29;20231;-79
2021/11/24 16:08:29;;;;;;;27.50;11.07;;;9.20;99.90;;;;;;4918018;29;20216;-72
2021/11/24 16:10:56;;;;;;;31.67;11.30;;;9.20;99.90;;;;;;4915646;29;20474;-77
2021/11/24 16:13:23;;;;;;;25.60;9.63;;;9.20;99.90;;;;;;4899208;29;20207;-75
2021/11/24 16:15:50;;;;;;;25.10;9.43;;;9.20;99.90;;;;;;4898446;29;20726;-70
2021/11/24 16:18:18;;;;;;;27.83;10.53;;;9.20;99.90;;;;;;4898825;29;20214;-76
2021/11/24 16:20:45;;;;;;;34.00;11.13;;;9.30;99.90;;;;;;4915368;29;20229;-78
2021/11/24 16:23:13;;;;;;;28.30;11.43;;;9.20;99.90;;;;;;4916648;29;20201;-67
2021/11/24 16:25:40;;;;;;;24.90;10.60;;;9.20;99.90;;;;;;4917463;29;20209;-66
2021/11/24 16:28:09;;;;;;;24.73;10.47;;;9.20;99.90;;;;;;4913738;29;20562;-76
2021/11/24 16:30:36;;;;;;;28.77;9.87;;;9.30;99.90;;;;;;4913960;29;20582;-66
2021/11/24 16:33:03;;;;;;;23.27;9.33;;;9.30;99.90;;;;;;4908761;29;20213;-77
2021/11/24 16:35:32;;;;;;;28.17;11.13;;;9.20;99.90;;;;;;4917198;29;20230;-70
2021/11/24 16:37:59;;;;;;;31.77;11.03;;;9.20;99.90;;;;;;4900150;29;20349;-74
2021/11/24 16:40:27;;;;;;;28.33;11.00;;;9.20;99.90;;;;;;4898333;29;20222;-72
2021/11/24 16:42:56;;;;;;;27.07;10.93;;;9.10;99.90;;;;;;4897310;29;20301;-72
2021/11/24 16:45:24;;;;;;;29.90;11.90;;;9.00;99.90;;;;;;4898309;29;20207;-67
2021/11/24 16:47:51;;;;;;;29.17;12.30;;;9.10;99.90;;;;;;4898604;29;20217;-76
2021/11/24 16:50:19;;;;;;;29.63;11.43;;;9.10;99.90;;;;;;4898852;29;20226;-70
2021/11/24 16:52:46;;;;;;;29.33;11.63;;;9.10;99.90;;;;;;4899366;29;20571;-69
2021/11/24 16:55:15;;;;;;;32.67;11.53;;;9.00;99.90;;;;;;4898513;29;20281;-70
2021/11/24 16:57:43;;;;;;;32.23;10.73;;;8.90;99.90;;;;;;4898228;29;20210;-67
2021/11/24 17:00:14;;;;;;;27.23;10.47;;;9.00;99.90;;;;;;4901671;29;20263;-72
2021/11/24 17:02:41;;;;;;;27.37;10.70;;;9.20;99.90;;;;;;4898521;29;20211;-75
2021/11/24 17:05:12;;;;;;;30.77;11.30;;;9.10;99.90;;;;;;4909870;29;20561;-75
2021/11/24 17:07:40;;;;;;;28.80;10.40;;;9.10;99.90;;;;;;4916638;29;20210;-68
2021/11/24 17:10:09;;;;;;;25.87;10.57;;;8.90;99.90;;;;;;4916742;29;20225;-70
2021/11/24 17:12:36;;;;;;;30.43;10.67;;;8.90;99.90;;;;;;4904225;29;20670;-69
2021/11/24 17:15:05;;;;;;;27.60;10.43;;;9.00;99.90;;;;;;4900033;29;20209;-79
2021/11/24 17:17:32;;;;;;;24.03;10.17;;;9.10;99.90;;;;;;4899432;29;20715;-71
2021/11/24 17:19:59;;;;;;;30.00;11.10;;;9.20;99.90;;;;;;4897594;29;20230;-78
2021/11/24 17:22:26;;;;;;;26.27;11.13;;;9.10;99.90;;;;;;4906439;29;20223;-73
2021/11/24 17:24:53;;;;;;;24.80;9.67;;;9.00;99.90;;;;;;4897488;29;20270;-69
2021/11/24 17:27:21;;;;;;;27.13;9.97;;;8.80;99.90;;;;;;4898101;29;20210;-76
2021/11/24 17:29:49;;;;;;;30.63;11.33;;;8.90;99.90;;;;;;4897516;29;20301;-78
2021/11/24 17:32:17;;;;;;;31.37;13.33;;;9.00;99.90;;;;;;4901825;29;20206;-76
2021/11/24 17:34:44;;;;;;;32.67;13.50;;;9.10;99.90;;;;;;4897281;29;20656;-76
2021/11/24 17:37:11;;;;;;;40.73;15.73;;;9.20;99.90;;;;;;4900519;29;20234;-71
2021/11/24 17:39:38;;;;;;;44.10;16.57;;;9.20;99.90;;;;;;4916249;29;20225;-74
2021/11/24 17:42:06;;;;;;;32.63;12.97;;;9.20;99.90;;;;;;4916170;29;20218;-78
2021/11/24 17:44:33;;;;;;;38.63;14.30;;;9.20;99.90;;;;;;4916744;29;20213;-75
2021/11/24 17:47:04;;;;;;;31.47;12.47;;;9.20;99.90;;;;;;4916539;29;20215;-74
2021/11/24 17:49:33;;;;;;;29.73;12.37;;;9.20;99.90;;;;;;4909505;29;20266;-72
2021/11/24 17:52:01;;;;;;;26.07;10.63;;;9.20;99.90;;;;;;4898009;29;20297;-75
2021/11/24 17:54:27;;;;;;;29.83;11.13;;;9.00;99.90;;;;;;4897768;29;20211;-69
2021/11/24 17:56:54;;;;;;;28.60;10.60;;;8.90;99.90;;;;;;4897406;29;20234;-73
2021/11/24 17:59:22;;;;;;;32.63;11.83;;;8.90;99.90;;;;;;4900871;29;20230;-70
2021/11/24 18:01:49;;;;;;;31.93;11.47;;;9.00;99.90;;;;;;4901623;29;20214;-77
2021/11/24 18:04:19;;;;;;;28.63;12.80;;;8.90;99.90;;;;;;4901360;29;20210;-72
2021/11/24 18:06:48;;;;;;;32.47;11.37;;;9.00;99.90;;;;;;4904314;29;20288;-71
2021/11/24 18:09:15;;;;;;;27.23;10.90;;;9.00;99.90;;;;;;4915296;29;20225;-75
2021/11/24 18:11:42;;;;;;;28.57;11.23;;;9.10;99.90;;;;;;4911406;29;20207;-70
2021/11/24 18:14:10;;;;;;;30.17;11.60;;;9.00;99.90;;;;;;4900312;29;20210;-78
2021/11/24 18:16:38;;;;;;;30.57;12.33;;;9.10;99.90;;;;;;4900083;29;20317;-73
2021/11/24 18:19:04;;;;;;;26.17;10.57;;;9.10;99.90;;;;;;4902979;29;20585;-73
2021/11/24 18:21:31;;;;;;;36.60;12.07;;;9.20;99.90;;;;;;4900528;29;20305;-69
2021/11/24 18:24:00;;;;;;;34.27;13.67;;;9.30;99.90;;;;;;4900784;29;20211;-77
2021/11/24 18:26:28;;;;;;;31.30;12.63;;;9.20;99.90;;;;;;4900678;29;20218;-75
2021/11/24 18:28:55;;;;;;;30.07;13.03;;;9.00;99.90;;;;;;4900463;29;20318;-77
2021/11/24 18:31:25;;;;;;;32.30;12.07;;;8.80;99.90;;;;;;4900352;29;20258;-74
2021/11/24 18:33:52;;;;;;;28.33;10.50;;;8.80;99.90;;;;;;4900793;29;20211;-78
2021/11/24 18:36:19;;;;;;;32.87;13.13;;;8.90;99.90;;;;;;4900581;29;20266;-76
2021/11/24 18:38:46;;;;;;;32.00;13.47;;;8.90;99.90;;;;;;4902792;29;20228;-78
2021/11/24 18:41:15;;;;;;;31.90;12.50;;;8.80;99.90;;;;;;4902350;29;20210;-75
2021/11/24 18:43:43;;;;;;;35.17;13.03;;;8.80;99.90;;;;;;4902784;29;20677;-77
2021/11/24 18:46:10;;;;;;;33.53;11.23;;;8.70;99.90;;;;;;4900496;29;20218;-75
2021/11/24 18:48:37;;;;;;;29.27;11.20;;;8.70;99.90;;;;;;4909797;29;20229;-77
2021/11/24 18:51:05;;;;;;;30.17;11.50;;;8.50;99.90;;;;;;4900557;29;20207;-79
2021/11/24 18:53:32;;;;;;;26.97;10.00;;;8.50;99.90;;;;;;4900996;29;20214;-74
2021/11/24 18:56:00;;;;;;;32.50;11.63;;;8.40;99.90;;;;;;4910180;29;20217;-74
2021/11/24 18:58:28;;;;;;;28.63;10.17;;;8.40;99.90;;;;;;4915588;29;20258;-76
2021/11/24 19:00:55;;;;;;;31.63;10.60;;;8.30;99.90;;;;;;4900066;29;20214;-76
2021/11/24 19:03:21;;;;;;;27.57;9.87;;;7.90;99.90;;;;;;4905560;29;20207;-74
2021/11/24 19:05:48;;;;;;;25.70;9.57;;;7.80;99.90;;;;;;4899534;29;20225;-75
2021/11/24 19:08:15;;;;;;;29.13;10.53;;;7.70;99.90;;;;;;4899534;29;20214;-76
2021/11/24 19:10:42;;;;;;;31.40;11.20;;;7.50;99.90;;;;;;4899972;29;20212;-74
2021/11/24 19:13:09;;;;;;;33.53;10.00;;;7.50;99.90;;;;;;4899830;29;20214;-70
2021/11/24 19:15:37;;;;;;;32.80;10.30;;;7.40;99.90;;;;;;4899773;29;20217;-76
2021/11/24 19:18:04;;;;;;;29.23;10.17;;;7.40;99.90;;;;;;4900028;29;20246;-75
2021/11/24 19:20:31;;;;;;;26.67;10.07;;;7.30;99.90;;;;;;4906739;29;20225;-71
2021/11/24 19:22:59;;;;;;;28.97;10.30;;;7.30;99.90;;;;;;4909299;29;20663;-73
2021/11/24 19:25:26;;;;;;;32.00;10.70;;;7.10;99.90;;;;;;4903918;29;20298;-77
2021/11/24 19:27:53;;;;;;;25.17;9.30;;;7.00;99.90;;;;;;4906907;29;20230;-77
2021/11/24 19:30:21;;;;;;;26.00;9.10;;;7.10;99.90;;;;;;4904733;29;20237;-74
2021/11/24 19:32:49;;;;;;;30.87;10.80;;;7.10;99.90;;;;;;4905982;29;20334;-77
2021/11/24 19:35:19;;;;;;;32.27;9.83;;;7.10;99.90;;;;;;4914186;29;20210;-74
2021/11/24 19:37:47;;;;;;;28.33;10.47;;;7.10;99.90;;;;;;4911173;29;20256;-77
2021/11/24 19:40:16;;;;;;;31.03;10.57;;;7.10;99.90;;;;;;4910423;29;20239;-73
2021/11/24 19:42:43;;;;;;;27.00;10.33;;;7.10;99.90;;;;;;4909475;29;20222;-75
2021/11/24 19:45:10;;;;;;;25.00;9.37;;;6.90;99.90;;;;;;4902847;29;20211;-72
2021/11/24 19:47:38;;;;;;;25.17;9.17;;;6.90;99.90;;;;;;4911809;29;20217;-76
2021/11/24 19:50:12;;;;;;;31.33;10.17;;;6.90;99.90;;;;;;4899765;29;20238;-74
2021/11/24 19:52:38;;;;;;;32.23;10.37;;;6.80;99.90;;;;;;4907279;29;20662;-75
2021/11/24 19:55:06;;;;;;;25.50;9.87;;;6.90;99.90;;;;;;4908920;29;20217;-76
2021/11/24 19:57:32;;;;;;;25.87;10.13;;;6.90;99.90;;;;;;4903273;29;20234;-77
2021/11/24 19:59:59;;;;;;;28.13;9.87;;;6.90;99.90;;;;;;4901105;29;20238;-70
2021/11/24 20:02:26;;;;;;;29.13;9.70;;;6.90;99.90;;;;;;4901941;29;20221;-75
2021/11/24 20:04:54;;;;;;;31.90;10.43;;;7.00;99.90;;;;;;4904618;29;20213;-76
2021/11/24 20:07:22;;;;;;;28.20;9.83;;;7.00;99.90;;;;;;4910049;29;20217;-73
2021/11/24 20:09:49;;;;;;;29.43;8.70;;;7.20;99.90;;;;;;4905219;29;20720;-75
2021/11/24 20:12:16;;;;;;;31.37;9.03;;;7.00;99.90;;;;;;4912532;29;20210;-74
2021/11/24 20:14:43;;;;;;;25.63;8.93;;;7.00;99.90;;;;;;4905062;29;20232;-66
2021/11/24 20:17:10;;;;;;;26.60;10.20;;;6.90;99.90;;;;;;4910283;29;20244;-76
2021/11/24 20:19:37;;;;;;;20.50;7.93;;;7.10;99.90;;;;;;4902724;29;20234;-76
2021/11/24 20:22:04;;;;;;;23.77;8.70;;;7.20;99.90;;;;;;4914337;29;20220;-76
2021/11/24 20:24:35;;;;;;;27.20;10.00;;;7.10;99.90;;;;;;4905457;29;20210;-74
2021/11/24 20:27:02;;;;;;;26.73;9.13;;;7.10;99.90;;;;;;4905227;29;20210;-74
2021/11/24 20:29:29;;;;;;;23.50;8.63;;;7.10;99.90;;;;;;4909703;29;20229;-76
2021/11/24 20:31:56;;;;;;;21.57;8.27;;;7.30;99.90;;;;;;4908131;29;20219;-65
2021/11/24 20:34:24;;;;;;;23.20;8.80;;;7.30;99.90;;;;;;4906304;29;20722;-68
2021/11/24 20:36:52;;;;;;;19.27;8.43;;;7.40;99.90;;;;;;4906446;29;20237;-69
2021/11/24 20:39:19;;;;;;;24.40;8.53;;;7.40;99.90;;;;;;4903892;29;20714;-63
2021/11/24 20:41:47;;;;;;;27.00;8.13;;;7.40;99.90;;;;;;4909240;29;20222;-65
2021/11/24 20:44:14;;;;;;;22.30;7.77;;;7.40;99.90;;;;;;4909257;29;20750;-67
2021/11/24 20:46:41;;;;;;;20.13;8.57;;;7.50;99.90;;;;;;4907221;29;20659;-74
2021/11/24 20:49:08;;;;;;;28.30;8.97;;;7.50;99.90;;;;;;4913783;29;20649;-65
2021/11/24 20:51:36;;;;;;;25.70;8.80;;;7.50;99.90;;;;;;4915353;29;20304;-75
2021/11/24 20:54:03;;;;;;;23.00;8.50;;;7.50;99.90;;;;;;4909275;29;20220;-72
2021/11/24 20:56:30;;;;;;;21.10;7.43;;;7.50;99.90;;;;;;4910863;29;20248;-70
2021/11/24 20:58:58;;;;;;;27.00;8.47;;;7.40;99.90;;;;;;4910627;29;20244;-75
2021/11/24 21:01:26;;;;;;;25.23;8.60;;;7.40;99.90;;;;;;4904785;29;20206;-73
2021/11/24 21:03:53;;;;;;;23.77;8.90;;;7.40;99.90;;;;;;4902442;29;20628;-68
2021/11/24 21:06:20;;;;;;;23.30;8.50;;;7.30;99.90;;;;;;4914518;29;20302;-66
2021/11/24 21:08:48;;;;;;;23.03;8.87;;;7.30;99.90;;;;;;4907154;29;20226;-73
2021/11/24 21:11:16;;;;;;;24.13;8.70;;;7.30;99.90;;;;;;4902922;29;20202;-68
2021/11/24 21:13:43;;;;;;;26.57;8.97;;;7.30;99.90;;;;;;4904135;29;20210;-73
2021/11/24 21:16:11;;;;;;;22.27;8.70;;;7.40;99.90;;;;;;4909038;29;20245;-68
2021/11/24 21:18:40;;;;;;;23.73;8.97;;;7.30;99.90;;;;;;4907175;29;20615;-69
2021/11/24 21:21:09;;;;;;;20.77;8.00;;;7.20;99.90;;;;;;4910189;29;20662;-64
2021/11/24 21:23:36;;;;;;;26.33;8.57;;;7.20;99.90;;;;;;4906636;29;20214;-77
2021/11/24 21:26:05;;;;;;;21.27;8.47;;;7.10;99.90;;;;;;4906028;29;20214;-73
2021/11/24 21:28:35;;;;;;;20.33;8.30;;;7.10;99.90;;;;;;4906907;29;20309;-77
2021/11/24 21:31:04;;;;;;;29.80;9.67;;;7.00;99.90;;;;;;4913046;29;20209;-76
2021/11/24 21:33:33;;;;;;;21.43;8.47;;;6.90;99.90;;;;;;4922741;29;20220;-74